createdAt,value
2019-04-16T00:02:00.280Z,11.60
2019-04-16T00:04:53.657Z,11.60
2019-04-16T00:07:48.932Z,11.50
2019-04-16T00:10:37.305Z,11.50
2019-04-16T00:13:13.569Z,11.40
2019-04-16T00:15:42.879Z,11.40
2019-04-16T00:18:12.173Z,11.40
2019-04-16T00:20:57.386Z,11.30
2019-04-16T00:23:46.828Z,11.30
2019-04-16T00:26:16.271Z,11.20
2019-04-16T00:28:45.616Z,11.20
2019-04-16T00:31:15.036Z,11.30
2019-04-16T00:33:44.363Z,11.20
2019-04-16T00:36:15.377Z,11.20
2019-04-16T00:38:44.629Z,11.20
2019-04-16T00:41:13.879Z,11.10
2019-04-16T00:43:44.248Z,11.10
2019-04-16T00:46:13.509Z,11.10
2019-04-16T00:48:42.752Z,11.10
2019-04-16T00:51:12.085Z,11.10
2019-04-16T00:53:41.371Z,11.10
2019-04-16T00:56:13.435Z,11.10
2019-04-16T00:58:42.557Z,11.10
2019-04-16T01:01:11.905Z,11.10
2019-04-16T01:03:41.234Z,11.00
2019-04-16T01:06:10.526Z,11.00
2019-04-16T01:08:53.577Z,11.00
2019-04-16T01:11:10.919Z,11.00
2019-04-16T01:13:40.296Z,11.00
2019-04-16T01:16:09.693Z,11.00
2019-04-16T01:18:39.389Z,11.00
2019-04-16T01:21:08.820Z,11.00
2019-04-16T01:23:38.055Z,11.00
2019-04-16T01:26:07.476Z,10.90
2019-04-16T01:28:41.147Z,10.90
2019-04-16T01:31:36.288Z,10.80
2019-04-16T01:34:18.159Z,10.90
2019-04-16T01:37:18.338Z,10.90
2019-04-16T01:39:49.486Z,10.80
2019-04-16T01:42:23.373Z,10.70
2019-04-16T01:44:49.887Z,10.80
2019-04-16T01:47:19.243Z,10.70
2019-04-16T01:49:48.630Z,10.70
2019-04-16T01:52:18.912Z,10.60
2019-04-16T01:54:51.403Z,10.60
2019-04-16T01:57:19.911Z,10.60
2019-04-16T01:59:49.290Z,10.60
2019-04-16T02:02:18.673Z,10.60
2019-04-16T02:04:48.517Z,10.60
2019-04-16T02:07:18.955Z,10.50
2019-04-16T02:09:48.319Z,10.50
2019-04-16T02:12:17.692Z,10.50
2019-04-16T02:14:47.320Z,10.40
2019-04-16T02:17:18.092Z,10.40
2019-04-16T02:19:47.531Z,10.30
2019-04-16T02:22:16.908Z,10.30
2019-04-16T02:24:47.816Z,10.30
2019-04-16T02:27:18.868Z,10.30
2019-04-16T02:29:48.346Z,10.30
2019-04-16T02:32:17.647Z,10.30
2019-04-16T02:34:47.052Z,10.30
2019-04-16T02:37:16.541Z,10.30
2019-04-16T02:39:48.808Z,10.30
2019-04-16T02:42:16.982Z,10.20
2019-04-16T02:44:49.844Z,10.20
2019-04-16T02:47:17.479Z,10.20
2019-04-16T02:49:46.897Z,10.10
2019-04-16T02:52:33.817Z,10.00
2019-04-16T02:55:25.162Z,10.10
2019-04-16T02:58:00.275Z,10.00
2019-04-16T03:00:38.771Z,10.00
2019-04-16T03:03:11.476Z,10.00
2019-04-16T03:05:43.427Z,9.90
2019-04-16T03:08:13.147Z,9.90
2019-04-16T03:10:44.661Z,9.90
2019-04-16T03:13:13.637Z,9.90
2019-04-16T03:16:06.278Z,9.90
2019-04-16T03:18:48.064Z,9.80
2019-04-16T03:21:17.626Z,9.80
2019-04-16T03:23:47.075Z,9.80
2019-04-16T03:26:18.051Z,9.80
2019-04-16T03:28:47.613Z,9.70
2019-04-16T03:31:22.368Z,9.70
2019-04-16T03:33:50.291Z,9.70
2019-04-16T03:36:19.079Z,9.70
2019-04-16T03:38:48.454Z,9.70
2019-04-16T03:41:17.851Z,9.60
2019-04-16T03:43:47.243Z,9.60
2019-04-16T03:46:16.570Z,9.60
2019-04-16T03:48:45.919Z,9.50
2019-04-16T03:51:15.301Z,9.50
2019-04-16T03:53:46.489Z,9.60
2019-04-16T03:56:15.645Z,9.50
2019-04-16T03:58:45.057Z,9.50
2019-04-16T04:01:15.429Z,9.50
2019-04-16T04:03:45.033Z,9.50
2019-04-16T04:06:14.451Z,9.50
2019-04-16T04:08:48.018Z,9.40
2019-04-16T04:11:14.736Z,9.40
2019-04-16T04:13:44.142Z,9.40
2019-04-16T04:16:13.633Z,9.40
2019-04-16T04:18:43.876Z,9.40
2019-04-16T04:21:13.311Z,9.40
2019-04-16T04:23:42.721Z,9.40
2019-04-16T04:26:12.146Z,9.30
2019-04-16T04:28:41.603Z,9.40
2019-04-16T04:31:11.004Z,9.30
2019-04-16T04:33:42.798Z,9.30
2019-04-16T04:36:11.862Z,9.30
2019-04-16T04:38:41.288Z,9.30
2019-04-16T04:41:10.712Z,9.30
2019-04-16T04:43:41.019Z,9.20
2019-04-16T04:46:14.769Z,9.20
2019-04-16T04:48:41.413Z,9.20
2019-04-16T04:51:10.875Z,9.20
2019-04-16T04:53:40.203Z,9.30
2019-04-16T04:56:09.670Z,9.30
2019-04-16T04:58:39.037Z,9.30
2019-04-16T05:01:09.578Z,9.20
2019-04-16T05:03:57.822Z,9.20
2019-04-16T05:06:33.507Z,9.20
2019-04-16T05:09:03.023Z,9.30
2019-04-16T05:11:32.445Z,9.20
2019-04-16T05:14:01.747Z,9.30
2019-04-16T05:16:31.542Z,9.30
2019-04-16T05:19:02.087Z,9.40
2019-04-16T05:21:31.443Z,9.40
2019-04-16T05:24:00.800Z,9.40
2019-04-16T05:26:30.107Z,9.40
2019-04-16T05:29:16.324Z,9.40
2019-04-16T05:31:42.681Z,9.40
2019-04-16T05:34:12.652Z,9.50
2019-04-16T05:36:46.211Z,9.50
2019-04-16T05:39:13.127Z,9.50
2019-04-16T05:41:42.467Z,9.50
2019-04-16T05:44:11.859Z,9.60
2019-04-16T05:46:44.415Z,9.60
2019-04-16T05:49:12.315Z,9.70
2019-04-16T05:51:41.680Z,9.70
2019-04-16T05:54:24.117Z,9.70
2019-04-16T05:56:55.673Z,9.70
2019-04-16T05:59:25.126Z,9.80
2019-04-16T06:02:02.667Z,9.80
2019-04-16T06:04:31.962Z,9.80
2019-04-16T06:07:04.791Z,9.90
2019-04-16T06:09:32.245Z,10.00
2019-04-16T06:12:01.538Z,10.10
2019-04-16T06:14:46.468Z,10.10
2019-04-16T06:17:47.005Z,10.20
2019-04-16T06:20:27.628Z,10.30
2019-04-16T06:23:08.658Z,10.30
2019-04-16T06:25:50.230Z,10.40
2019-04-16T06:28:37.224Z,10.40
2019-04-16T06:31:24.307Z,10.40
2019-04-16T06:34:11.294Z,10.50
2019-04-16T06:37:05.721Z,10.60
2019-04-16T06:39:45.138Z,10.60
2019-04-16T06:42:24.865Z,10.60
2019-04-16T06:44:55.909Z,10.70
2019-04-16T06:47:41.808Z,10.80
2019-04-16T06:50:32.827Z,10.90
2019-04-16T06:53:19.489Z,11.00
2019-04-16T06:55:56.632Z,11.00
2019-04-16T06:58:50.136Z,11.10
2019-04-16T07:01:27.236Z,11.10
2019-04-16T07:04:00.369Z,11.10
2019-04-16T07:06:48.675Z,11.20
2019-04-16T07:09:41.634Z,11.30
2019-04-16T07:12:26.978Z,11.40
2019-04-16T07:14:56.299Z,11.50
2019-04-16T07:17:25.678Z,11.50
2019-04-16T07:19:55.003Z,11.60
2019-04-16T07:22:24.421Z,11.60
2019-04-16T07:25:03.921Z,11.70
2019-04-16T07:27:43.461Z,11.90
2019-04-16T07:30:40.051Z,12.00
2019-04-16T07:33:18.419Z,12.20
2019-04-16T07:36:18.815Z,12.30
2019-04-16T07:39:28.845Z,12.40
2019-04-16T07:42:12.632Z,12.50
2019-04-16T07:44:55.506Z,12.70
2019-04-16T07:47:40.231Z,13.00
2019-04-16T07:50:38.658Z,13.20
2019-04-16T07:53:21.977Z,13.50
2019-04-16T07:55:56.971Z,13.70
2019-04-16T07:58:26.360Z,13.90
2019-04-16T08:00:56.023Z,14.10
2019-04-16T08:03:26.802Z,14.30
2019-04-16T08:05:56.464Z,14.40
2019-04-16T08:08:25.823Z,14.60
2019-04-16T08:10:55.209Z,14.70
2019-04-16T08:13:25.595Z,14.90
2019-04-16T08:15:56.755Z,15.00
2019-04-16T08:18:26.128Z,15.20
2019-04-16T08:21:02.375Z,15.50
2019-04-16T08:23:41.042Z,15.60
2019-04-16T08:26:13.294Z,15.60
2019-04-16T08:28:41.590Z,15.90
2019-04-16T08:31:15.547Z,15.90
2019-04-16T08:33:44.960Z,15.90
2019-04-16T08:36:14.261Z,15.90
2019-04-16T08:38:43.656Z,16.10
2019-04-16T08:41:13.400Z,16.10
2019-04-16T08:43:42.901Z,16.20
2019-04-16T08:46:12.435Z,16.30
2019-04-16T08:48:41.811Z,16.40
2019-04-16T08:51:11.271Z,16.30
2019-04-16T08:53:43.655Z,16.30
2019-04-16T08:56:12.117Z,16.60
2019-04-16T08:58:41.975Z,16.60
2019-04-16T09:01:15.427Z,16.70
2019-04-16T09:03:44.533Z,17.00
2019-04-16T09:06:14.280Z,17.10
2019-04-16T09:09:14.188Z,16.90
2019-04-16T09:11:42.415Z,16.90
2019-04-16T09:14:12.188Z,17.00
2019-04-16T09:17:03.885Z,17.00
2019-04-16T09:19:34.320Z,17.10
2019-04-16T09:22:03.697Z,17.10
2019-04-16T09:24:41.405Z,17.10
2019-04-16T09:27:28.444Z,17.30
2019-04-16T09:30:16.918Z,17.40
2019-04-16T09:33:04.554Z,17.60
2019-04-16T09:35:51.677Z,17.70
2019-04-16T09:38:33.456Z,17.70
2019-04-16T09:41:23.751Z,17.90
2019-04-16T09:43:57.231Z,18.10
2019-04-16T09:46:49.711Z,18.20
2019-04-16T09:49:00.056Z,18.20
2019-04-16T09:51:30.270Z,18.10
2019-04-16T09:53:59.816Z,18.20
2019-04-16T09:56:30.508Z,18.40
2019-04-16T09:59:17.089Z,18.50
2019-04-16T10:02:08.348Z,18.40
2019-04-16T10:04:37.730Z,18.30
2019-04-16T10:07:07.283Z,18.40
2019-04-16T10:09:36.744Z,18.50
2019-04-16T10:12:07.904Z,18.50
2019-04-16T10:14:37.493Z,18.30
2019-04-16T10:17:07.652Z,18.30
2019-04-16T10:19:37.037Z,18.30
2019-04-16T10:22:06.477Z,18.40
2019-04-16T10:24:53.455Z,18.50
2019-04-16T10:27:32.343Z,18.70
2019-04-16T10:30:00.632Z,18.80
2019-04-16T10:32:31.094Z,18.90
2019-04-16T10:35:00.459Z,18.90
2019-04-16T10:37:30.172Z,18.80
2019-04-16T10:40:10.787Z,18.70
2019-04-16T10:43:05.095Z,18.70
2019-04-16T10:45:52.063Z,18.90
2019-04-16T10:48:28.568Z,19.10
2019-04-16T10:51:19.801Z,19.30
2019-04-16T10:54:10.946Z,19.50
2019-04-16T10:56:58.398Z,19.70
2019-04-16T10:59:43.873Z,19.90
2019-04-16T11:02:38.460Z,19.90
2019-04-16T11:05:30.288Z,20.00
2019-04-16T11:08:00.376Z,19.80
2019-04-16T11:10:29.824Z,19.90
2019-04-16T11:12:59.197Z,20.00
2019-04-16T11:15:28.637Z,20.10
2019-04-16T11:17:58.077Z,20.20
2019-04-16T11:20:27.604Z,20.40
2019-04-16T11:22:57.121Z,20.30
2019-04-16T11:25:26.495Z,20.50
2019-04-16T11:27:55.938Z,20.50
2019-04-16T11:30:39.821Z,20.70
2019-04-16T11:33:09.656Z,21.00
2019-04-16T11:35:39.618Z,21.00
2019-04-16T11:38:09.035Z,21.20
2019-04-16T11:40:40.939Z,21.10
2019-04-16T11:43:10.453Z,21.00
2019-04-16T11:45:39.864Z,21.30
2019-04-16T11:48:09.221Z,21.90
2019-04-16T11:50:38.587Z,22.20
2019-04-16T11:53:08.017Z,22.50
2019-04-16T11:55:37.550Z,23.10
2019-04-16T11:58:12.658Z,24.00
2019-04-16T12:00:47.067Z,23.90
2019-04-16T12:03:20.967Z,24.20
2019-04-16T12:06:28.288Z,24.20
2019-04-16T12:09:11.932Z,24.00
2019-04-16T12:12:09.557Z,24.10
2019-04-16T12:15:16.086Z,23.90
2019-04-16T12:18:07.433Z,23.80
2019-04-16T12:20:44.638Z,23.60
2019-04-16T12:23:48.310Z,23.80
2019-04-16T12:26:26.812Z,23.70
2019-04-16T12:29:08.895Z,23.90
2019-04-16T12:31:50.945Z,23.80
2019-04-16T12:34:34.281Z,23.90
2019-04-16T12:37:15.297Z,23.40
2019-04-16T12:39:55.687Z,22.80
2019-04-16T12:42:46.799Z,22.30
2019-04-16T12:45:41.023Z,21.80
2019-04-16T12:48:22.466Z,21.60
2019-04-16T12:51:13.840Z,21.30
2019-04-16T12:54:05.057Z,21.10
2019-04-16T12:56:52.112Z,21.00
2019-04-16T12:59:29.531Z,21.00
2019-04-16T13:02:20.707Z,21.00
2019-04-16T13:05:00.788Z,21.30
2019-04-16T13:07:47.622Z,21.40
2019-04-16T13:10:45.011Z,21.40
2019-04-16T13:13:27.022Z,21.40
2019-04-16T13:16:21.480Z,21.20
2019-04-16T13:19:08.645Z,21.30
2019-04-16T13:21:44.988Z,21.50
2019-04-16T13:24:20.300Z,21.50
2019-04-16T13:26:56.092Z,21.50
2019-04-16T13:29:29.492Z,21.60
2019-04-16T13:31:57.784Z,21.70
2019-04-16T13:34:27.694Z,21.70
2019-04-16T13:36:59.686Z,21.40
2019-04-16T13:40:02.125Z,21.30
2019-04-16T13:42:31.696Z,21.30
2019-04-16T13:45:27.034Z,21.00
2019-04-16T13:47:56.066Z,21.20
2019-04-16T13:50:44.449Z,21.30
2019-04-16T13:53:47.855Z,21.50
2019-04-16T13:56:29.624Z,21.50
2019-04-16T13:59:31.181Z,21.60
2019-04-16T14:02:18.643Z,21.70
2019-04-16T14:04:47.441Z,21.60
2019-04-16T14:07:16.883Z,21.50
2019-04-16T14:09:46.349Z,21.30
2019-04-16T14:12:16.312Z,21.20
2019-04-16T14:14:49.462Z,21.20
2019-04-16T14:17:24.348Z,21.20
2019-04-16T14:19:53.752Z,21.40
2019-04-16T14:22:23.156Z,21.50
2019-04-16T14:24:52.652Z,21.60
2019-04-16T14:27:22.234Z,21.80
2019-04-16T14:29:51.549Z,21.90
2019-04-16T14:32:21.043Z,22.00
2019-04-16T14:34:55.670Z,22.20
2019-04-16T14:37:25.014Z,22.10
2019-04-16T14:40:00.175Z,22.10
2019-04-16T14:42:29.623Z,22.10
2019-04-16T14:45:07.485Z,22.10
2019-04-16T14:47:38.074Z,21.90
2019-04-16T14:50:08.437Z,21.60
2019-04-16T14:52:37.891Z,21.60
2019-04-16T14:55:12.498Z,21.60
2019-04-16T14:57:59.355Z,21.80
2019-04-16T15:00:50.910Z,21.80
2019-04-16T15:03:43.008Z,21.70
2019-04-16T15:06:17.009Z,21.60
2019-04-16T15:09:06.927Z,21.40
2019-04-16T15:11:47.265Z,21.40
2019-04-16T15:14:23.387Z,21.50
2019-04-16T15:17:00.471Z,21.30
2019-04-16T15:19:32.844Z,21.40
2019-04-16T15:22:30.956Z,21.30
2019-04-16T15:25:13.656Z,21.20
2019-04-16T15:28:17.339Z,21.20
2019-04-16T15:31:04.000Z,21.20
2019-04-16T15:33:44.350Z,21.40
2019-04-16T15:36:23.064Z,21.40
2019-04-16T15:39:09.867Z,21.50
2019-04-16T15:42:04.099Z,21.50
2019-04-16T15:44:40.648Z,21.30
2019-04-16T15:47:26.498Z,21.20
2019-04-16T15:50:04.400Z,21.20
2019-04-16T15:53:07.754Z,21.00
2019-04-16T15:56:08.167Z,20.90
2019-04-16T15:59:05.661Z,20.90
2019-04-16T16:01:54.028Z,20.70
2019-04-16T16:04:30.827Z,20.60
2019-04-16T16:07:02.922Z,20.60
2019-04-16T16:10:03.440Z,20.40
2019-04-16T16:12:33.736Z,20.20
2019-04-16T16:15:09.010Z,20.20
2019-04-16T16:17:36.644Z,20.20
2019-04-16T16:20:10.197Z,20.20
2019-04-16T16:22:38.342Z,20.20
2019-04-16T16:25:08.652Z,20.10
2019-04-16T16:27:41.691Z,20.20
2019-04-16T16:30:14.419Z,20.00
2019-04-16T16:32:42.613Z,19.90
2019-04-16T16:35:16.995Z,19.70
2019-04-16T16:37:43.353Z,19.60
2019-04-16T16:40:15.297Z,19.60
2019-04-16T16:42:44.387Z,19.40
2019-04-16T16:45:14.284Z,19.30
2019-04-16T16:47:43.638Z,19.20
2019-04-16T16:50:17.375Z,19.00
2019-04-16T16:53:01.886Z,18.90
2019-04-16T16:55:35.452Z,18.80
2019-04-16T16:58:18.009Z,18.70
2019-04-16T17:01:01.194Z,18.60
2019-04-16T17:03:46.632Z,18.60
2019-04-16T17:06:16.502Z,18.60
2019-04-16T17:08:47.875Z,18.50
2019-04-16T17:11:17.597Z,18.40
2019-04-16T17:13:47.052Z,18.40
2019-04-16T17:16:16.466Z,18.40
2019-04-16T17:18:47.626Z,18.30
2019-04-16T17:21:17.307Z,18.30
2019-04-16T17:23:46.740Z,18.20
2019-04-16T17:26:16.774Z,18.10
2019-04-16T17:28:46.155Z,18.00
2019-04-16T17:31:15.827Z,18.00
2019-04-16T17:33:45.189Z,18.00
2019-04-16T17:36:14.649Z,17.90
2019-04-16T17:38:44.019Z,17.90
2019-04-16T17:41:16.979Z,17.80
2019-04-16T17:44:03.193Z,17.70
2019-04-16T17:46:51.808Z,17.70
2019-04-16T17:49:38.633Z,17.60
2019-04-16T17:52:45.286Z,17.50
2019-04-16T17:55:36.875Z,17.40
2019-04-16T17:58:12.719Z,17.40
2019-04-16T18:01:10.234Z,17.40
2019-04-16T18:03:48.684Z,17.40
2019-04-16T18:06:30.244Z,17.40
2019-04-16T18:09:08.699Z,17.30
2019-04-16T18:12:06.215Z,17.20
2019-04-16T18:14:53.831Z,17.10
2019-04-16T18:17:28.674Z,17.00
2019-04-16T18:20:16.041Z,16.90
2019-04-16T18:23:03.078Z,16.90
2019-04-16T18:25:56.487Z,16.80
2019-04-16T18:28:27.440Z,16.70
2019-04-16T18:31:11.884Z,16.60
2019-04-16T18:33:49.104Z,16.50
2019-04-16T18:36:37.784Z,16.50
2019-04-16T18:39:37.213Z,16.40
2019-04-16T18:42:25.128Z,16.40
2019-04-16T18:45:24.648Z,16.30
2019-04-16T18:48:04.905Z,16.10
2019-04-16T18:50:31.006Z,16.20
2019-04-16T18:53:00.470Z,16.20
2019-04-16T18:55:33.824Z,16.20
2019-04-16T18:58:07.341Z,16.10
2019-04-16T19:00:52.815Z,16.10
2019-04-16T19:03:23.232Z,16.00
2019-04-16T19:05:52.733Z,15.90
2019-04-16T19:08:22.638Z,15.90
2019-04-16T19:10:52.805Z,15.90
2019-04-16T19:13:22.436Z,15.90
2019-04-16T19:15:52.987Z,15.90
2019-04-16T19:18:22.641Z,15.90
2019-04-16T19:20:52.668Z,15.80
2019-04-16T19:23:22.311Z,15.80
2019-04-16T19:25:54.732Z,15.70
2019-04-16T19:28:23.968Z,15.70
2019-04-16T19:30:53.586Z,15.70
2019-04-16T19:33:22.971Z,15.60
2019-04-16T19:35:52.415Z,15.60
2019-04-16T19:38:22.045Z,15.50
2019-04-16T19:40:51.823Z,15.50
2019-04-16T19:43:21.353Z,15.40
2019-04-16T19:45:50.715Z,15.30
2019-04-16T19:48:34.528Z,15.20
2019-04-16T19:50:51.091Z,15.20
2019-04-16T19:53:20.492Z,15.20
2019-04-16T19:55:49.745Z,15.20
2019-04-16T19:58:19.206Z,15.10
2019-04-16T20:00:48.530Z,15.10
2019-04-16T20:03:17.786Z,15.00
2019-04-16T20:05:47.156Z,14.80
2019-04-16T20:08:16.405Z,14.80
2019-04-16T20:10:48.737Z,14.70
2019-04-16T20:13:16.728Z,14.70
2019-04-16T20:15:46.007Z,14.60
2019-04-16T20:18:15.324Z,14.50
2019-04-16T20:20:47.080Z,14.50
2019-04-16T20:23:15.745Z,14.40
2019-04-16T20:25:45.110Z,14.40
2019-04-16T20:28:20.380Z,14.30
2019-04-16T20:30:49.736Z,14.20
2019-04-16T20:33:19.162Z,14.10
2019-04-16T20:35:50.526Z,14.10
2019-04-16T20:38:19.439Z,14.00
2019-04-16T20:40:48.736Z,13.90
2019-04-16T20:43:18.035Z,13.80
2019-04-16T20:45:47.405Z,13.90
2019-04-16T20:48:16.643Z,13.80
2019-04-16T20:50:46.306Z,13.70
2019-04-16T20:53:15.632Z,13.60
2019-04-16T20:55:47.430Z,13.50
2019-04-16T20:58:15.928Z,13.40
2019-04-16T21:00:47.240Z,13.30
2019-04-16T21:03:22.306Z,13.30
2019-04-16T21:05:57.839Z,13.40
2019-04-16T21:08:24.445Z,13.30
2019-04-16T21:10:50.207Z,13.30
2019-04-16T21:13:19.432Z,13.20
2019-04-16T21:15:48.651Z,13.20
2019-04-16T21:18:17.923Z,13.10
2019-04-16T21:20:50.816Z,13.00
2019-04-16T21:23:17.959Z,12.90
2019-04-16T21:25:47.328Z,12.90
2019-04-16T21:28:27.053Z,12.90
2019-04-16T21:31:00.370Z,12.90
2019-04-16T21:33:40.833Z,12.90
2019-04-16T21:36:11.208Z,12.90
2019-04-16T21:38:57.921Z,12.90
2019-04-16T21:41:28.549Z,12.90
2019-04-16T21:43:58.019Z,12.90
2019-04-16T21:46:27.385Z,13.00
2019-04-16T21:48:59.740Z,13.00
2019-04-16T21:51:27.469Z,12.90
2019-04-16T21:53:58.092Z,12.90
2019-04-16T21:56:27.642Z,12.90
2019-04-16T21:58:57.073Z,12.80
2019-04-16T22:01:36.836Z,12.70
2019-04-16T22:04:13.218Z,12.70
2019-04-16T22:06:40.543Z,12.60
2019-04-16T22:09:09.955Z,12.60
2019-04-16T22:11:43.242Z,12.60
2019-04-16T22:14:10.080Z,12.60
2019-04-16T22:16:39.396Z,12.50
2019-04-16T22:19:10.870Z,12.50
2019-04-16T22:21:42.805Z,12.40
2019-04-16T22:24:10.692Z,12.30
2019-04-16T22:26:39.957Z,12.30
2019-04-16T22:29:09.610Z,12.30
2019-04-16T22:31:38.858Z,12.30
2019-04-16T22:34:08.688Z,12.20
2019-04-16T22:36:38.044Z,12.20
2019-04-16T22:39:25.065Z,12.20
2019-04-16T22:42:00.016Z,12.10
2019-04-16T22:44:54.485Z,12.10
2019-04-16T22:47:28.544Z,12.10
2019-04-16T22:50:14.243Z,12.10
2019-04-16T22:52:28.630Z,12.00
2019-04-16T22:54:57.873Z,12.00
2019-04-16T22:57:27.038Z,11.90
2019-04-16T22:59:56.515Z,12.00
2019-04-16T23:02:28.333Z,12.10
2019-04-16T23:04:58.536Z,12.10
2019-04-16T23:07:28.408Z,12.00
2019-04-16T23:09:57.804Z,12.00
2019-04-16T23:12:28.251Z,12.00
2019-04-16T23:14:57.603Z,11.90
2019-04-16T23:17:27.128Z,11.90
2019-04-16T23:19:56.383Z,11.80
2019-04-16T23:22:25.553Z,11.70
2019-04-16T23:24:55.442Z,11.70
2019-04-16T23:27:25.537Z,11.80
2019-04-16T23:29:54.768Z,11.90
2019-04-16T23:32:27.430Z,11.90
2019-04-16T23:34:54.982Z,11.90
2019-04-16T23:37:24.215Z,11.80
2019-04-16T23:39:53.437Z,11.80
2019-04-16T23:42:22.736Z,11.80
2019-04-16T23:45:08.372Z,11.70
2019-04-16T23:48:14.169Z,11.70
2019-04-16T23:50:50.089Z,11.60
2019-04-16T23:53:24.251Z,11.60
2019-04-16T23:56:13.430Z,11.50
2019-04-16T23:59:04.089Z,11.50
